createdAt,value
2022-08-21T00:00:15.108Z,45.20
2022-08-21T00:02:25.335Z,45.10
2022-08-21T00:04:30.115Z,45.20
2022-08-21T00:06:32.155Z,45.10
2022-08-21T00:08:34.399Z,45.10
2022-08-21T00:10:37.665Z,45.00
2022-08-21T00:12:40.300Z,45.00
2022-08-21T00:14:42.071Z,45.10
2022-08-21T00:16:44.578Z,45.00
2022-08-21T00:18:46.329Z,44.90
2022-08-21T00:20:48.771Z,44.90
2022-08-21T00:22:50.984Z,44.90
2022-08-21T00:24:52.668Z,44.80
2022-08-21T00:26:54.465Z,44.80
2022-08-21T00:28:56.171Z,44.70
2022-08-21T00:31:01.058Z,44.50
2022-08-21T00:33:03.356Z,44.60
2022-08-21T00:35:10.428Z,44.50
2022-08-21T00:37:12.649Z,44.50
2022-08-21T00:39:14.309Z,44.30
2022-08-21T00:41:37.885Z,44.30
2022-08-21T00:43:39.755Z,44.30
2022-08-21T00:45:41.665Z,44.30
2022-08-21T00:47:43.410Z,44.80
2022-08-21T00:49:45.805Z,44.30
2022-08-21T00:51:59.131Z,44.20
2022-08-21T00:54:02.711Z,44.00
2022-08-21T00:56:07.297Z,44.10
2022-08-21T00:58:13.659Z,44.00
2022-08-21T01:00:19.610Z,44.00
2022-08-21T01:02:21.543Z,44.10
2022-08-21T01:04:23.943Z,44.10
2022-08-21T01:06:25.812Z,44.10
2022-08-21T01:08:30.102Z,44.10
2022-08-21T01:10:32.017Z,44.00
2022-08-21T01:12:34.927Z,44.00
2022-08-21T01:14:37.041Z,43.90
2022-08-21T01:16:41.115Z,43.80
2022-08-21T01:18:43.212Z,43.90
2022-08-21T01:21:35.967Z,43.90
2022-08-21T01:23:40.245Z,43.80
2022-08-21T01:25:42.268Z,43.70
2022-08-21T01:27:44.722Z,43.60
2022-08-21T01:29:53.712Z,43.60
2022-08-21T01:31:55.637Z,43.60
2022-08-21T01:33:57.356Z,43.60
2022-08-21T01:35:59.052Z,43.50
2022-08-21T01:38:00.783Z,43.50
2022-08-21T01:40:04.112Z,43.50
2022-08-21T01:42:06.706Z,43.40
2022-08-21T01:44:09.790Z,43.30
2022-08-21T01:46:13.335Z,43.90
2022-08-21T01:48:15.004Z,43.30
2022-08-21T01:50:20.107Z,43.20
2022-08-21T01:52:21.863Z,43.30
2022-08-21T01:54:23.796Z,43.20
2022-08-21T01:56:26.903Z,43.30
2022-08-21T01:58:28.575Z,43.20
2022-08-21T02:00:30.373Z,43.90
2022-08-21T02:02:32.029Z,43.00
2022-08-21T02:04:34.272Z,43.10
2022-08-21T02:06:36.498Z,43.00
2022-08-21T02:08:38.193Z,43.00
2022-08-21T02:10:39.996Z,43.00
2022-08-21T02:12:50.879Z,42.90
2022-08-21T02:14:52.550Z,42.90
2022-08-21T02:17:05.193Z,43.00
2022-08-21T02:19:08.024Z,42.80
2022-08-21T02:21:09.980Z,42.90
2022-08-21T02:23:12.864Z,42.80
2022-08-21T02:25:15.085Z,42.80
2022-08-21T02:27:16.757Z,42.80
2022-08-21T02:29:22.109Z,42.70
2022-08-21T02:31:23.853Z,42.80
2022-08-21T02:33:26.892Z,42.60
2022-08-21T02:35:28.765Z,42.60
2022-08-21T02:37:30.836Z,42.60
2022-08-21T02:39:32.739Z,42.60
2022-08-21T02:41:34.736Z,42.70
2022-08-21T02:43:36.679Z,42.90
2022-08-21T02:45:39.511Z,42.80
2022-08-21T02:47:47.578Z,42.90
2022-08-21T02:49:49.248Z,42.90
2022-08-21T02:51:50.916Z,42.90
2022-08-21T02:53:52.736Z,43.00
2022-08-21T02:55:55.640Z,43.00
2022-08-21T02:57:59.044Z,43.00
2022-08-21T03:00:00.731Z,43.00
2022-08-21T03:02:03.185Z,43.10
2022-08-21T03:04:04.899Z,43.00
2022-08-21T03:06:09.071Z,43.00
2022-08-21T03:08:13.655Z,43.70
2022-08-21T03:10:17.218Z,43.00
2022-08-21T03:12:19.079Z,42.90
2022-08-21T03:14:20.881Z,42.90
2022-08-21T03:16:22.581Z,42.90
2022-08-21T03:18:24.539Z,42.90
2022-08-21T03:20:28.359Z,43.60
2022-08-21T03:22:30.715Z,42.90
2022-08-21T03:24:32.864Z,42.90
2022-08-21T03:26:36.383Z,43.00
2022-08-21T03:28:41.371Z,43.00
2022-08-21T03:30:44.740Z,43.00
2022-08-21T03:32:47.141Z,42.90
2022-08-21T03:34:48.853Z,42.90
2022-08-21T03:36:50.915Z,43.50
2022-08-21T03:38:52.595Z,42.90
2022-08-21T03:40:54.670Z,42.80
2022-08-21T03:42:56.379Z,42.80
2022-08-21T03:44:58.129Z,42.80
2022-08-21T03:46:59.861Z,42.80
2022-08-21T03:49:01.797Z,42.90
2022-08-21T03:51:04.029Z,43.60
2022-08-21T03:53:05.800Z,42.90
2022-08-21T03:55:07.680Z,42.80
2022-08-21T03:57:10.214Z,43.00
2022-08-21T03:59:12.652Z,42.90
2022-08-21T04:01:14.340Z,42.80
2022-08-21T04:03:16.813Z,42.80
2022-08-21T04:05:28.215Z,42.80
2022-08-21T04:07:30.010Z,42.80
2022-08-21T04:09:32.067Z,42.90
2022-08-21T04:11:33.723Z,42.80
2022-08-21T04:13:35.692Z,42.90
2022-08-21T04:15:44.217Z,42.90
2022-08-21T04:17:45.877Z,42.90
2022-08-21T04:19:50.566Z,42.90
2022-08-21T04:21:55.287Z,42.90
2022-08-21T04:23:57.451Z,42.80
2022-08-21T04:25:59.239Z,42.90
2022-08-21T04:28:00.949Z,42.80
2022-08-21T04:30:03.827Z,42.90
2022-08-21T04:32:05.748Z,42.90
2022-08-21T04:34:07.430Z,43.00
2022-08-21T04:36:09.472Z,43.00
2022-08-21T04:38:11.324Z,43.00
2022-08-21T04:40:15.239Z,43.10
2022-08-21T04:42:17.168Z,43.00
2022-08-21T04:44:19.196Z,43.00
2022-08-21T04:46:20.865Z,43.10
2022-08-21T04:48:25.086Z,43.00
2022-08-21T04:50:54.149Z,43.00
2022-08-21T04:52:56.778Z,42.90
2022-08-21T04:54:58.517Z,42.80
2022-08-21T04:57:06.242Z,42.90
2022-08-21T04:59:23.146Z,42.80
2022-08-21T05:01:28.150Z,42.70
2022-08-21T05:03:32.345Z,42.90
2022-08-21T05:05:34.736Z,42.90
2022-08-21T05:07:42.174Z,43.00
2022-08-21T05:09:45.326Z,43.40
2022-08-21T05:11:47.811Z,43.20
2022-08-21T05:13:55.000Z,43.10
2022-08-21T05:15:59.767Z,43.50
2022-08-21T05:18:01.757Z,43.00
2022-08-21T05:20:04.219Z,42.80
2022-08-21T05:22:05.976Z,42.70
2022-08-21T05:24:08.252Z,42.70
2022-08-21T05:26:18.039Z,43.10
2022-08-21T05:28:20.291Z,42.60
2022-08-21T05:30:22.029Z,42.70
2022-08-21T05:32:24.364Z,42.50
2022-08-21T05:34:26.031Z,42.60
2022-08-21T05:36:27.805Z,42.60
2022-08-21T05:38:29.587Z,42.70
2022-08-21T05:40:31.727Z,42.80
2022-08-21T05:42:33.454Z,42.90
2022-08-21T05:44:35.383Z,42.80
2022-08-21T05:46:37.548Z,43.10
2022-08-21T05:48:39.255Z,42.90
2022-08-21T05:50:41.937Z,42.90
2022-08-21T05:52:43.600Z,43.00
2022-08-21T05:54:45.320Z,43.00
2022-08-21T05:56:46.978Z,43.00
2022-08-21T05:58:48.643Z,43.00
2022-08-21T06:00:51.915Z,43.40
2022-08-21T06:02:53.634Z,43.60
2022-08-21T06:04:57.899Z,43.60
2022-08-21T06:06:59.569Z,43.60
2022-08-21T06:09:01.292Z,43.90
2022-08-21T06:11:04.968Z,43.80
2022-08-21T06:13:06.646Z,43.70
2022-08-21T06:15:08.754Z,43.80
2022-08-21T06:17:13.412Z,44.10
2022-08-21T06:19:15.131Z,44.40
2022-08-21T06:21:16.844Z,44.40
2022-08-21T06:23:18.539Z,44.00
2022-08-21T06:25:20.266Z,44.00
2022-08-21T06:27:26.158Z,44.20
2022-08-21T06:29:28.368Z,43.90
2022-08-21T06:31:30.264Z,44.50
2022-08-21T06:33:32.865Z,43.60
2022-08-21T06:35:35.488Z,43.50
2022-08-21T06:37:37.892Z,44.10
2022-08-21T06:39:45.046Z,44.00
2022-08-21T06:41:47.055Z,43.30
2022-08-21T06:43:49.816Z,43.00
2022-08-21T06:45:51.804Z,43.80
2022-08-21T06:47:53.576Z,43.10
2022-08-21T06:49:55.283Z,43.00
2022-08-21T06:51:57.325Z,43.20
2022-08-21T06:53:59.585Z,43.40
2022-08-21T06:56:01.602Z,43.50
2022-08-21T06:58:04.118Z,43.60
2022-08-21T07:00:07.472Z,43.30
2022-08-21T07:02:09.173Z,44.00
2022-08-21T07:04:11.603Z,44.40
2022-08-21T07:06:13.363Z,44.20
2022-08-21T07:08:15.055Z,44.30
2022-08-21T07:10:22.456Z,44.40
2022-08-21T07:12:24.583Z,44.40
2022-08-21T07:14:26.608Z,44.20
2022-08-21T07:16:28.407Z,43.90
2022-08-21T07:18:30.070Z,43.80
2022-08-21T07:20:34.477Z,43.80
2022-08-21T07:22:38.392Z,43.80
2022-08-21T07:24:40.059Z,43.80
2022-08-21T07:26:42.348Z,43.80
2022-08-21T07:28:44.543Z,43.80
2022-08-21T07:30:46.783Z,44.00
2022-08-21T07:32:50.280Z,44.00
2022-08-21T07:34:52.169Z,44.10
2022-08-21T07:36:53.953Z,44.00
2022-08-21T07:38:55.635Z,44.10
2022-08-21T07:41:00.121Z,44.10
2022-08-21T07:43:01.836Z,44.10
2022-08-21T07:45:03.710Z,44.20
2022-08-21T07:47:05.672Z,44.20
2022-08-21T07:49:07.383Z,44.20
2022-08-21T07:51:11.899Z,44.20
2022-08-21T07:53:13.636Z,44.30
2022-08-21T07:55:17.965Z,44.30
2022-08-21T07:57:19.702Z,45.10
2022-08-21T07:59:23.527Z,44.50
2022-08-21T08:01:26.072Z,44.70
2022-08-21T08:03:29.065Z,44.80
2022-08-21T08:05:32.120Z,44.80
2022-08-21T08:07:34.179Z,45.00
2022-08-21T08:09:37.104Z,45.10
2022-08-21T08:11:42.031Z,45.00
2022-08-21T08:13:46.668Z,45.20
2022-08-21T08:15:48.332Z,45.30
2022-08-21T08:17:50.363Z,45.60
2022-08-21T08:19:52.065Z,45.10
2022-08-21T08:21:54.020Z,45.30
2022-08-21T08:23:55.748Z,45.50
2022-08-21T08:25:57.891Z,45.40
2022-08-21T08:27:59.588Z,45.40
2022-08-21T08:30:01.363Z,45.50
2022-08-21T08:32:04.548Z,45.40
2022-08-21T08:34:06.429Z,45.40
2022-08-21T08:36:14.751Z,45.30
2022-08-21T08:38:19.793Z,45.20
2022-08-21T08:40:39.102Z,45.20
2022-08-21T08:42:44.747Z,45.30
2022-08-21T08:44:47.796Z,45.20
2022-08-21T08:46:52.221Z,46.00
2022-08-21T08:49:06.994Z,45.40
2022-08-21T08:51:38.332Z,45.50
2022-08-21T08:53:52.748Z,45.40
2022-08-21T08:55:54.553Z,45.30
2022-08-21T08:57:57.678Z,45.30
2022-08-21T09:00:02.550Z,45.40
2022-08-21T09:02:06.451Z,45.40
2022-08-21T09:04:08.368Z,45.30
2022-08-21T09:06:35.065Z,45.30
2022-08-21T09:09:03.320Z,45.20
2022-08-21T09:11:27.937Z,45.30
2022-08-21T09:13:55.001Z,45.10
2022-08-21T09:16:22.975Z,45.10
2022-08-21T09:18:45.596Z,45.10
2022-08-21T09:21:19.477Z,45.10
2022-08-21T09:23:21.116Z,45.10
2022-08-21T09:25:29.023Z,45.20
2022-08-21T09:27:32.503Z,45.10
2022-08-21T09:29:38.065Z,45.10
2022-08-21T09:31:39.828Z,45.10
2022-08-21T09:33:41.896Z,45.00
2022-08-21T09:35:53.892Z,45.00
2022-08-21T09:38:07.394Z,45.20
2022-08-21T09:40:43.957Z,45.00
2022-08-21T09:42:56.353Z,45.10
2022-08-21T09:45:19.010Z,45.00
2022-08-21T09:47:26.218Z,45.00
2022-08-21T09:49:41.959Z,45.00
2022-08-21T09:51:52.629Z,45.20
2022-08-21T09:53:57.925Z,45.20
2022-08-21T09:56:24.339Z,45.20
2022-08-21T09:58:36.413Z,45.10
2022-08-21T10:00:38.526Z,45.10
2022-08-21T10:02:40.312Z,45.10
2022-08-21T10:04:46.747Z,45.00
2022-08-21T10:06:48.541Z,45.00
2022-08-21T10:08:50.324Z,44.60
2022-08-21T10:11:07.183Z,44.60
2022-08-21T10:13:25.312Z,44.70
2022-08-21T10:15:46.508Z,44.50
2022-08-21T10:18:04.860Z,44.50
2022-08-21T10:20:31.004Z,44.60
2022-08-21T10:22:54.960Z,44.50
2022-08-21T10:25:15.330Z,45.10
2022-08-21T10:27:44.680Z,44.30
2022-08-21T10:29:57.391Z,44.30
2022-08-21T10:32:29.720Z,44.00
2022-08-21T10:35:10.534Z,44.00
2022-08-21T10:37:19.569Z,44.00
2022-08-21T10:39:36.545Z,43.90
2022-08-21T10:42:07.101Z,43.80
2022-08-21T10:44:42.976Z,43.70
2022-08-21T10:47:09.576Z,43.60
2022-08-21T10:49:26.936Z,43.20
2022-08-21T10:51:40.495Z,43.10
2022-08-21T10:53:50.692Z,43.00
2022-08-21T10:56:05.699Z,42.90
2022-08-21T10:58:22.420Z,42.70
2022-08-21T11:00:37.403Z,43.00
2022-08-21T11:03:05.455Z,43.00
2022-08-21T11:05:18.266Z,42.80
2022-08-21T11:07:25.296Z,42.80
2022-08-21T11:09:33.169Z,42.70
2022-08-21T11:11:45.115Z,42.90
2022-08-21T11:14:11.387Z,42.80
2022-08-21T11:16:38.503Z,42.90
2022-08-21T11:18:46.291Z,42.70
2022-08-21T11:21:02.737Z,42.80
2022-08-21T11:23:13.213Z,42.70
2022-08-21T11:25:23.381Z,42.80
2022-08-21T11:27:27.483Z,42.40
2022-08-21T11:29:38.566Z,42.10
2022-08-21T11:32:17.374Z,42.20
2022-08-21T11:34:50.012Z,42.20
2022-08-21T11:36:57.887Z,42.20
2022-08-21T11:39:17.414Z,42.20
2022-08-21T11:41:21.926Z,42.10
2022-08-21T11:43:23.543Z,42.00
2022-08-21T11:45:47.395Z,42.10
2022-08-21T11:47:54.906Z,42.20
2022-08-21T11:50:34.404Z,42.10
2022-08-21T11:53:13.595Z,42.00
2022-08-21T11:55:26.289Z,42.00
2022-08-21T11:57:32.325Z,41.90
2022-08-21T11:59:41.631Z,41.80
2022-08-21T12:01:46.025Z,41.90
2022-08-21T12:04:02.322Z,41.70
2022-08-21T12:06:13.401Z,41.80
2022-08-21T12:08:29.402Z,41.80
2022-08-21T12:10:41.682Z,41.70
2022-08-21T12:12:45.455Z,41.00
2022-08-21T12:14:49.783Z,42.10
2022-08-21T12:16:52.050Z,41.30
2022-08-21T12:19:07.680Z,41.10
2022-08-21T12:21:27.557Z,40.90
2022-08-21T12:23:44.921Z,41.40
2022-08-21T12:26:23.118Z,41.10
2022-08-21T12:28:25.589Z,41.40
2022-08-21T12:30:27.575Z,41.50
2022-08-21T12:32:44.744Z,41.40
2022-08-21T12:34:58.705Z,41.50
2022-08-21T12:37:19.650Z,41.90
2022-08-21T12:39:28.174Z,41.30
2022-08-21T12:41:34.918Z,41.00
2022-08-21T12:43:42.206Z,39.10
2022-08-21T12:45:47.958Z,40.90
2022-08-21T12:47:56.879Z,40.70
2022-08-21T12:50:14.514Z,40.60
2022-08-21T12:52:21.053Z,40.90
2022-08-21T12:54:30.993Z,40.80
2022-08-21T12:56:35.203Z,40.70
2022-08-21T12:58:37.295Z,40.90
2022-08-21T13:00:47.955Z,40.70
2022-08-21T13:02:51.832Z,40.50
2022-08-21T13:04:56.190Z,40.50
2022-08-21T13:07:00.563Z,40.40
2022-08-21T13:09:08.042Z,40.60
2022-08-21T13:11:15.006Z,40.80
2022-08-21T13:13:25.769Z,40.80
2022-08-21T13:15:33.822Z,40.80
2022-08-21T13:17:39.360Z,40.80
2022-08-21T13:19:41.204Z,39.70
2022-08-21T13:21:44.408Z,41.30
2022-08-21T13:23:46.117Z,41.40
2022-08-21T13:25:51.109Z,42.10
2022-08-21T13:28:12.455Z,42.10
2022-08-21T13:30:21.095Z,37.20
2022-08-21T13:32:26.376Z,38.70
2022-08-21T13:34:32.643Z,37.10
2022-08-21T13:36:41.347Z,38.40
2022-08-21T13:38:45.817Z,38.40
2022-08-21T13:40:56.788Z,38.90
2022-08-21T13:43:00.554Z,37.10
2022-08-21T13:45:02.328Z,37.50
2022-08-21T13:47:06.204Z,38.60
2022-08-21T13:49:09.467Z,38.40
2022-08-21T13:51:11.823Z,37.70
2022-08-21T13:53:35.803Z,38.70
2022-08-21T13:55:44.326Z,39.30
2022-08-21T13:57:46.131Z,38.50
2022-08-21T13:59:48.025Z,38.60
2022-08-21T14:02:02.263Z,38.70
2022-08-21T14:04:13.200Z,38.80
2022-08-21T14:06:18.723Z,38.70
2022-08-21T14:08:41.877Z,38.30
2022-08-21T14:10:53.863Z,38.50
2022-08-21T14:13:03.713Z,37.70
2022-08-21T14:15:06.935Z,38.80
2022-08-21T14:17:25.109Z,38.90
2022-08-21T14:19:45.243Z,39.40
2022-08-21T14:21:47.172Z,40.30
2022-08-21T14:23:48.835Z,40.20
2022-08-21T14:25:50.522Z,36.40
2022-08-21T14:27:55.284Z,36.20
2022-08-21T14:30:02.127Z,38.50
2022-08-21T14:32:25.199Z,38.60
2022-08-21T14:34:34.120Z,37.00
2022-08-21T14:36:37.514Z,38.40
2022-08-21T14:38:41.139Z,38.90
2022-08-21T14:40:44.624Z,37.70
2022-08-21T14:42:47.549Z,38.80
2022-08-21T14:44:49.258Z,37.80
2022-08-21T14:46:55.513Z,37.50
2022-08-21T14:48:58.081Z,37.80
2022-08-21T14:51:00.642Z,37.60
2022-08-21T14:53:04.883Z,36.90
2022-08-21T14:55:15.208Z,38.00
2022-08-21T14:57:17.296Z,37.20
2022-08-21T14:59:20.977Z,37.10
2022-08-21T15:01:23.768Z,36.30
2022-08-21T15:03:26.771Z,37.70
2022-08-21T15:05:32.972Z,36.50
2022-08-21T15:07:35.364Z,36.30
2022-08-21T15:09:37.200Z,36.90
2022-08-21T15:11:41.460Z,36.90
2022-08-21T15:13:44.668Z,35.90
2022-08-21T15:15:49.089Z,38.50
2022-08-21T15:17:50.747Z,36.50
2022-08-21T15:19:52.445Z,36.70
2022-08-21T15:21:54.256Z,35.30
2022-08-21T15:23:56.108Z,34.20
2022-08-21T15:25:58.633Z,34.10
2022-08-21T15:28:02.719Z,34.00
2022-08-21T15:30:05.234Z,33.50
2022-08-21T15:32:20.855Z,33.90
2022-08-21T15:34:23.312Z,35.00
2022-08-21T15:36:28.851Z,35.10
2022-08-21T15:38:30.640Z,35.50
2022-08-21T15:40:32.604Z,35.30
2022-08-21T15:42:35.272Z,36.00
2022-08-21T15:44:37.071Z,35.10
2022-08-21T15:46:40.528Z,36.00
2022-08-21T15:48:42.793Z,36.20
2022-08-21T15:50:44.613Z,34.60
2022-08-21T15:52:46.374Z,35.40
2022-08-21T15:54:48.901Z,35.20
2022-08-21T15:56:52.462Z,35.70
2022-08-21T15:59:00.444Z,36.50
2022-08-21T16:01:03.947Z,36.50
2022-08-21T16:03:07.921Z,35.90
2022-08-21T16:05:13.919Z,36.10
2022-08-21T16:07:16.080Z,36.10
2022-08-21T16:09:17.911Z,36.10
2022-08-21T16:11:19.941Z,35.70
2022-08-21T16:13:29.855Z,34.50
2022-08-21T16:15:31.614Z,35.20
2022-08-21T16:17:35.547Z,33.70
2022-08-21T16:19:38.207Z,34.20
2022-08-21T16:21:40.024Z,33.80
2022-08-21T16:23:42.373Z,33.80
2022-08-21T16:25:45.274Z,33.40
2022-08-21T16:27:52.608Z,32.90
2022-08-21T16:29:55.876Z,33.00
2022-08-21T16:31:57.548Z,33.50
2022-08-21T16:34:00.379Z,33.70
2022-08-21T16:36:02.662Z,34.10
2022-08-21T16:38:04.683Z,34.50
2022-08-21T16:40:07.239Z,33.90
2022-08-21T16:42:13.899Z,34.00
2022-08-21T16:44:16.698Z,33.90
2022-08-21T16:46:20.217Z,34.20
2022-08-21T16:48:23.010Z,34.30
2022-08-21T16:50:25.788Z,35.00
2022-08-21T16:52:27.515Z,34.20
2022-08-21T16:54:30.910Z,34.00
2022-08-21T16:56:32.915Z,32.40
2022-08-21T16:58:37.753Z,33.50
2022-08-21T17:00:39.500Z,34.10
2022-08-21T17:02:45.936Z,33.80
2022-08-21T17:04:47.636Z,33.90
2022-08-21T17:06:49.461Z,33.90
2022-08-21T17:08:52.887Z,34.20
2022-08-21T17:10:55.692Z,34.10
2022-08-21T17:12:58.914Z,35.20
2022-08-21T17:15:05.988Z,34.10
2022-08-21T17:17:09.780Z,33.10
2022-08-21T17:19:13.006Z,33.20
2022-08-21T17:21:18.640Z,33.80
2022-08-21T17:23:20.808Z,33.40
2022-08-21T17:25:22.479Z,33.00
2022-08-21T17:27:28.177Z,32.90
2022-08-21T17:29:35.892Z,32.80
2022-08-21T17:31:39.545Z,33.10
2022-08-21T17:33:50.579Z,33.10
2022-08-21T17:35:54.585Z,32.50
2022-08-21T17:37:57.370Z,33.40
2022-08-21T17:39:59.166Z,32.70
2022-08-21T17:42:06.476Z,32.40
2022-08-21T17:44:13.272Z,32.60
2022-08-21T17:46:24.723Z,32.50
2022-08-21T17:48:26.430Z,32.70
2022-08-21T17:50:28.267Z,32.30
2022-08-21T17:52:29.945Z,33.00
2022-08-21T17:54:31.720Z,33.50
2022-08-21T17:56:40.963Z,33.10
2022-08-21T17:58:48.705Z,33.60
2022-08-21T18:00:50.537Z,33.90
2022-08-21T18:03:04.591Z,33.80
2022-08-21T18:05:08.395Z,33.90
2022-08-21T18:07:10.249Z,34.00
2022-08-21T18:09:18.349Z,33.50
2022-08-21T18:11:25.140Z,33.60
2022-08-21T18:13:29.749Z,33.60
2022-08-21T18:15:32.168Z,33.40
2022-08-21T18:17:35.229Z,33.90
2022-08-21T18:19:37.499Z,34.60
2022-08-21T18:21:50.809Z,33.90
2022-08-21T18:23:55.508Z,33.30
2022-08-21T18:25:58.128Z,33.80
2022-08-21T18:28:05.366Z,33.80
2022-08-21T18:30:08.688Z,34.10
2022-08-21T18:32:17.498Z,34.40
2022-08-21T18:34:39.247Z,34.10
2022-08-21T18:36:41.029Z,34.00
2022-08-21T18:38:42.819Z,34.30
2022-08-21T18:40:55.136Z,34.00
2022-08-21T18:42:59.638Z,34.00
2022-08-21T18:45:02.559Z,34.50
2022-08-21T18:47:12.328Z,34.10
2022-08-21T18:49:15.484Z,34.20
2022-08-21T18:51:17.120Z,34.40
2022-08-21T18:53:27.527Z,34.40
2022-08-21T18:55:31.598Z,34.50
2022-08-21T18:57:34.520Z,34.90
2022-08-21T18:59:36.514Z,34.60
2022-08-21T19:01:39.028Z,34.60
2022-08-21T19:03:41.958Z,34.70
2022-08-21T19:05:45.519Z,35.40
2022-08-21T19:07:48.035Z,35.10
2022-08-21T19:10:20.980Z,35.00
2022-08-21T19:12:20.675Z,35.20
2022-08-21T19:14:23.269Z,35.40
2022-08-21T19:16:27.200Z,36.00
2022-08-21T19:18:31.736Z,35.50
2022-08-21T19:20:36.802Z,35.50
2022-08-21T19:22:38.883Z,35.60
2022-08-21T19:24:49.667Z,35.40
2022-08-21T19:29:18.276Z,35.50
2022-08-21T19:31:29.721Z,35.50
2022-08-21T19:33:37.729Z,35.40
2022-08-21T19:35:41.101Z,35.70
2022-08-21T19:37:43.231Z,35.90
2022-08-21T19:39:48.749Z,36.10
2022-08-21T19:41:57.142Z,36.20
2022-08-21T19:44:05.683Z,36.20
2022-08-21T19:46:07.563Z,36.20
2022-08-21T19:48:10.037Z,36.00
2022-08-21T19:50:17.318Z,36.10
2022-08-21T19:52:19.896Z,36.00
2022-08-21T19:54:25.731Z,35.90
2022-08-21T19:56:31.448Z,35.90
2022-08-21T19:58:39.407Z,35.80
2022-08-21T20:00:44.016Z,35.60
2022-08-21T20:02:48.027Z,35.80
2022-08-21T20:04:54.091Z,35.80
2022-08-21T20:06:56.772Z,35.70
2022-08-21T20:08:58.459Z,35.80
2022-08-21T20:11:02.541Z,35.70
2022-08-21T20:13:05.968Z,35.80
2022-08-21T20:15:08.891Z,35.70
2022-08-21T20:17:13.870Z,36.10
2022-08-21T20:19:16.150Z,35.90
2022-08-21T20:21:20.574Z,36.00
2022-08-21T20:23:30.121Z,35.90
2022-08-21T20:25:35.196Z,35.80
2022-08-21T20:27:40.516Z,35.70
2022-08-21T20:29:42.342Z,35.50
2022-08-21T20:31:44.716Z,35.50
2022-08-21T20:33:47.482Z,35.20
2022-08-21T20:35:52.129Z,35.10
2022-08-21T20:37:58.863Z,34.90
2022-08-21T20:40:16.429Z,34.90
2022-08-21T20:42:23.621Z,34.90
2022-08-21T20:44:30.696Z,35.50
2022-08-21T20:46:33.217Z,34.80
2022-08-21T20:48:49.325Z,34.60
2022-08-21T20:50:58.717Z,34.60
2022-08-21T20:53:16.289Z,34.50
2022-08-21T20:55:29.233Z,34.40
2022-08-21T20:57:34.235Z,34.30
2022-08-21T20:59:35.852Z,34.40
2022-08-21T21:01:38.209Z,34.20
2022-08-21T21:03:44.140Z,34.40
2022-08-21T21:05:57.408Z,34.20
2022-08-21T21:08:15.542Z,34.20
2022-08-21T21:10:29.351Z,34.20
2022-08-21T21:12:40.472Z,34.20
2022-08-21T21:14:46.770Z,34.20
2022-08-21T21:16:53.372Z,34.10
2022-08-21T21:19:20.929Z,34.20
2022-08-21T21:21:38.982Z,34.00
2022-08-21T21:23:50.489Z,34.10
2022-08-21T21:25:57.591Z,34.00
2022-08-21T21:28:12.921Z,34.10
2022-08-21T21:30:30.596Z,34.00
2022-08-21T21:32:32.433Z,34.10
2022-08-21T21:34:41.671Z,33.90
2022-08-21T21:39:46.337Z,34.00
2022-08-21T21:42:07.271Z,34.10
2022-08-21T21:44:36.864Z,34.10
2022-08-21T21:46:52.921Z,34.20
2022-08-21T21:49:33.244Z,34.20
2022-08-21T21:51:51.654Z,34.20
2022-08-21T21:54:23.191Z,34.20
2022-08-21T21:57:01.353Z,34.10
2022-08-21T21:59:43.628Z,34.20
2022-08-21T22:01:55.228Z,34.10
2022-08-21T22:04:10.319Z,34.10
2022-08-21T22:06:27.231Z,34.10
2022-08-21T22:08:32.042Z,34.10
2022-08-21T22:10:43.040Z,34.00
2022-08-21T22:13:26.654Z,34.10
2022-08-21T22:15:28.715Z,33.90
2022-08-21T22:17:36.355Z,33.90
2022-08-21T22:19:45.178Z,33.90
2022-08-21T22:21:55.949Z,33.90
2022-08-21T22:24:05.729Z,33.90
2022-08-21T22:26:16.569Z,33.80
2022-08-21T22:28:25.810Z,33.90
2022-08-21T22:30:46.716Z,33.90
2022-08-21T22:32:50.349Z,34.70
2022-08-21T22:35:09.635Z,34.00
2022-08-21T22:37:12.785Z,34.10
2022-08-21T22:39:25.184Z,34.10
2022-08-21T22:41:31.950Z,34.10
2022-08-21T22:43:36.628Z,34.20
2022-08-21T22:46:01.432Z,34.30
2022-08-21T22:48:06.254Z,34.50
2022-08-21T22:50:26.044Z,34.70
2022-08-21T22:52:33.346Z,35.20
2022-08-21T22:54:42.365Z,35.50
2022-08-21T22:59:26.590Z,35.90
2022-08-21T23:01:28.286Z,36.20
2022-08-21T23:03:41.719Z,36.40
2022-08-21T23:05:44.248Z,36.80
2022-08-21T23:07:49.638Z,37.10
2022-08-21T23:09:53.315Z,37.30
2022-08-21T23:11:57.627Z,37.50
2022-08-21T23:13:59.346Z,37.60
2022-08-21T23:16:00.960Z,37.80
2022-08-21T23:18:25.927Z,37.90
2022-08-21T23:23:26.827Z,38.40
2022-08-21T23:25:38.237Z,38.60
2022-08-21T23:28:07.283Z,38.70
2022-08-21T23:30:18.598Z,38.70
2022-08-21T23:32:46.986Z,38.90
2022-08-21T23:35:16.050Z,39.00
2022-08-21T23:37:51.662Z,39.80
2022-08-21T23:39:59.364Z,39.20
2022-08-21T23:42:38.772Z,39.50
2022-08-21T23:44:50.383Z,39.60
2022-08-21T23:47:29.052Z,39.60
2022-08-21T23:50:05.665Z,39.70
2022-08-21T23:52:45.692Z,39.70
2022-08-21T23:55:19.483Z,39.90
2022-08-21T23:57:32.003Z,39.90
2022-08-21T23:59:33.684Z,40.30
